Time;durP1;ratioP1;P1;durP2;ratioP2;P2;SDS_P1;SDS_P2;PMS_P1;PMS_P2;Temp;Humidity;BMP_temperature;BMP_pressure;BME280_temperature;BME280_humidity;BME280_pressure;Samples;Min_cycle;Max_cycle;Signal;HPM_P1;HPM_P2
2023/10/23 00:08:57;;;;;;;1.97;1.00;;;;;;;;;;20996147;28;20221;-70
2023/10/23 00:18:59;;;;;;;1.70;1.00;;;;;;;;;;20965107;28;20213;-70
2023/10/23 00:29:01;;;;;;;1.87;1.17;;;;;;;;;;20969189;28;20298;-70
2023/10/23 00:39:03;;;;;;;1.90;1.10;;;;;;;;;;20959630;28;20263;-70
2023/10/23 00:49:05;;;;;;;2.27;1.00;;;;;;;;;;21022089;28;20272;-70
2023/10/23 00:59:08;;;;;;;1.47;1.00;;;;;;;;;;20998007;28;20221;-70
2023/10/23 01:09:09;;;;;;;2.17;0.83;;;;;;;;;;21035270;28;20216;-70
2023/10/23 01:19:11;;;;;;;2.37;1.20;;;;;;;;;;20973987;28;20653;-70
2023/10/23 01:29:13;;;;;;;2.73;0.93;;;;;;;;;;20967203;28;20684;-70
2023/10/23 01:39:15;;;;;;;1.33;0.97;;;;;;;;;;20991764;22;20244;-74
2023/10/23 01:49:16;;;;;;;1.77;0.90;;;;;;;;;;20921651;28;20230;-74
2023/10/23 01:59:18;;;;;;;1.07;0.70;;;;;;;;;;20904944;28;20283;-72
2023/10/23 02:09:21;;;;;;;1.93;0.80;;;;;;;;;;20932362;28;20236;-72
2023/10/23 02:19:24;;;;;;;2.40;1.17;;;;;;;;;;20908182;28;20719;-73
2023/10/23 02:29:26;;;;;;;2.57;0.63;;;;;;;;;;20904385;28;20256;-73
2023/10/23 02:39:29;;;;;;;3.10;0.87;;;;;;;;;;20923428;28;20611;-72
2023/10/23 02:49:31;;;;;;;3.13;0.87;;;;;;;;;;20919471;28;20225;-73
2023/10/23 02:59:33;;;;;;;3.40;1.60;;;;;;;;;;20915840;28;20299;-74
2023/10/23 03:09:36;;;;;;;1.00;0.50;;;;;;;;;;20927133;28;20715;-73
2023/10/23 03:19:38;;;;;;;1.70;1.00;;;;;;;;;;20903588;28;20221;-73
2023/10/23 03:29:43;;;;;;;2.53;1.10;;;10.20;99.90;;;;;;20901310;28;20582;-73
2023/10/23 03:39:44;;;;;;;1.33;0.60;;;;;;;;;;20897405;28;20221;-74
2023/10/23 03:49:47;;;;;;;1.33;0.77;;;;;;;;;;20899455;28;20716;-73
2023/10/23 03:59:49;;;;;;;1.53;0.77;;;;;;;;;;20898258;28;20738;-73
2023/10/23 04:09:51;;;;;;;1.37;0.90;;;;;;;;;;20920207;28;20550;-73
2023/10/23 04:19:53;;;;;;;3.57;1.07;;;;;;;;;;20921023;28;20214;-73
2023/10/23 04:29:54;;;;;;;1.10;0.73;;;;;;;;;;20914490;28;20222;-73
2023/10/23 04:39:56;;;;;;;2.07;0.90;;;;;;;;;;20935801;28;20214;-73
2023/10/23 04:49:58;;;;;;;1.57;1.10;;;;;;;;;;20914547;28;20221;-73
2023/10/23 05:00:00;;;;;;;1.63;0.77;;;;;;;;;;20909240;28;20588;-72
2023/10/23 05:10:04;;;;;;;1.63;0.67;;;;;;;;;;20927085;28;20218;-73
2023/10/23 05:20:06;;;;;;;2.67;0.90;;;9.70;99.90;;;;;;20914076;28;20326;-73
2023/10/23 05:30:08;;;;;;;2.03;0.80;;;;;;;;;;20899502;28;20214;-75
2023/10/23 05:40:10;;;;;;;2.57;0.80;;;;;;;;;;20906159;28;20583;-73
2023/10/23 05:50:11;;;;;;;1.90;0.93;;;;;;;;;;20906732;28;20222;-72
2023/10/23 06:00:13;;;;;;;1.50;0.77;;;;;;;;;;20907562;28;20240;-73
2023/10/23 06:10:15;;;;;;;2.43;0.93;;;;;;;;;;20904738;28;20669;-73
2023/10/23 06:20:17;;;;;;;4.03;1.27;;;;;;;;;;20932735;28;20229;-74
2023/10/23 06:30:21;;;;;;;3.50;0.77;;;;;;;;;;20906491;28;20248;-74
2023/10/23 06:40:22;;;;;;;2.50;1.10;;;;;;;;;;20906615;28;20225;-74
2023/10/23 06:50:24;;;;;;;2.17;0.67;;;;;;;;;;20906416;28;20295;-75
2023/10/23 07:00:26;;;;;;;2.77;0.60;;;;;;;;;;20902481;28;20268;-75
2023/10/23 07:10:27;;;;;;;2.53;0.60;;;;;;;;;;20912832;28;20659;-74
2023/10/23 07:20:29;;;;;;;4.90;1.13;;;;;;;;;;20927881;28;20217;-74
2023/10/23 07:30:31;;;;;;;1.00;0.63;;;;;;;;;;20908980;28;20743;-75
2023/10/23 07:50:28;;;;;;;2.80;1.23;;;;;;;;;;20959013;28;20567;-73
2023/10/23 08:00:30;;;;;;;4.20;1.53;;;;;;;;;;20868981;28;20224;-74
2023/10/23 08:10:32;;;;;;;3.10;1.20;;;;;;;;;;20880430;28;20268;-75
2023/10/23 08:20:37;;;;;;;4.13;1.20;;;;;;;;;;20862374;28;20283;-75
2023/10/23 08:30:39;;;;;;;1.60;0.90;;;;;;;;;;20882373;28;20287;-75
2023/10/23 08:40:42;;;;;;;1.37;0.73;;;;;;;;;;20887756;28;20583;-75
2023/10/23 08:50:44;;;;;;;4.40;1.57;;;;;;;;;;20871361;28;20210;-75
2023/10/23 09:00:46;;;;;;;2.07;1.10;;;;;;;;;;20833173;28;20198;-75
2023/10/23 09:11:00;;;;;;;3.87;1.40;;;;;;;;;;20827895;28;20207;-74
2023/10/23 09:21:03;;;;;;;2.97;1.20;;;;;;;;;;20781629;28;20275;-75
2023/10/23 09:31:50;;;;;;;2.87;1.40;;;;;;;;;;20787969;28;20253;-75
2023/10/23 09:41:52;;;;;;;3.50;1.30;;;;;;;;;;20792577;28;20685;-75
2023/10/23 09:51:56;;;;;;;3.10;1.20;;;;;;;;;;20817474;28;20260;-75
2023/10/23 10:02:00;;;;;;;4.47;1.93;;;;;;;;;;20797719;28;20632;-75
2023/10/23 10:12:03;;;;;;;3.70;1.40;;;;;;;;;;20824395;28;20689;-75
2023/10/23 10:22:17;;;;;;;3.57;1.60;;;;;;;;;;20813908;28;20215;-75
2023/10/23 10:32:23;;;;;;;4.37;2.63;;;;;;;;;;20815922;28;20218;-74
2023/10/23 10:42:26;;;;;;;3.43;1.50;;;;;;;;;;20818416;28;20217;-74
2023/10/23 10:52:30;;;;;;;4.63;2.30;;;;;;;;;;20808405;28;20222;-74
2023/10/23 11:02:31;;;;;;;4.90;2.90;;;;;;;;;;20818710;28;20237;-74
2023/10/23 11:12:33;;;;;;;4.97;3.17;;;;;;;;;;20804867;28;20207;-74
2023/10/23 11:22:38;;;;;;;4.17;3.03;;;11.00;99.90;;;;;;20812702;28;20210;-74
2023/10/23 11:32:40;;;;;;;3.73;2.50;;;;;;;;;;20809674;28;20218;-74
2023/10/23 11:42:56;;;;;;;7.43;3.97;;;;;;;;;;20819117;28;20230;-74
2023/10/23 11:52:57;;;;;;;5.77;3.67;;;;;;;;;;20805592;28;20272;-73
2023/10/23 12:02:59;;;;;;;4.50;2.70;;;;;;;;;;20809015;28;20713;-75
2023/10/23 12:13:01;;;;;;;5.40;2.80;;;;;;;;;;20815114;28;20759;-75
2023/10/23 12:23:02;;;;;;;4.07;2.93;;;;;;;;;;20796682;28;20217;-74
2023/10/23 12:33:05;;;;;;;3.60;2.50;;;;;;;;;;20769884;28;20256;-74
2023/10/23 12:43:10;;;;;;;4.27;2.77;;;;;;;;;;20830620;28;20368;-74
2023/10/23 12:53:14;;;;;;;5.17;2.53;;;;;;;;;;20816581;28;20214;-74
2023/10/23 13:03:16;;;;;;;5.03;3.10;;;;;;;;;;20830163;28;20211;-76
2023/10/23 13:13:18;;;;;;;3.97;2.53;;;;;;;;;;20794292;28;20218;-75
2023/10/23 13:23:19;;;;;;;5.00;2.57;;;;;;;;;;20803370;28;20220;-74
2023/10/23 13:33:21;;;;;;;3.33;2.53;;;;;;;;;;20792191;28;20214;-74
2023/10/23 13:43:25;;;;;;;2.67;2.03;;;;;;;;;;20822161;28;20229;-74
2023/10/23 13:53:27;;;;;;;4.40;2.10;;;;;;;;;;20827605;28;20226;-75
2023/10/23 14:03:28;;;;;;;3.23;1.83;;;;;;;;;;20793187;28;20237;-74
2023/10/23 14:13:30;;;;;;;1.80;1.37;;;;;;;;;;20811862;23;20263;-76
2023/10/23 14:23:32;;;;;;;3.30;1.87;;;;;;;;;;20681306;28;20279;-76
2023/10/23 14:33:34;;;;;;;3.53;1.50;;;;;;;;;;20645356;28;20247;-76
2023/10/23 14:43:36;;;;;;;4.43;2.40;;;;;;;;;;20613168;28;20939;-76
2023/10/23 14:53:37;;;;;;;4.03;2.03;;;;;;;;;;20648868;28;20224;-75
2023/10/23 15:03:41;;;;;;;4.20;2.40;;;;;;;;;;20646698;28;20263;-77
2023/10/23 15:13:43;;;;;;;7.60;2.23;;;;;;;;;;20655921;28;20228;-77
2023/10/23 15:23:44;;;;;;;4.40;2.60;;;;;;;;;;20632641;28;20286;-76
2023/10/23 15:33:46;;;;;;;6.53;3.83;;;;;;;;;;20648001;28;20278;-75
2023/10/23 15:43:52;;;;;;;6.37;2.77;;;;;;;;;;20642557;28;20238;-74
2023/10/23 15:53:54;;;;;;;12.47;7.73;;;;;;;;;;20634558;28;20582;-74
2023/10/23 16:03:55;;;;;;;3.83;2.70;;;;;;;;;;20658068;28;20219;-74
2023/10/23 16:13:57;;;;;;;2.63;1.67;;;;;;;;;;20669826;28;20215;-77
2023/10/23 16:23:59;;;;;;;4.23;2.17;;;;;;;;;;20654799;28;20282;-73
2023/10/23 16:34:00;;;;;;;3.40;2.37;;;;;;;;;;20645079;28;20220;-75
2023/10/23 16:44:03;;;;;;;5.20;2.20;;;;;;;;;;20659210;28;20254;-75
2023/10/23 16:54:04;;;;;;;3.50;1.87;;;;;;;;;;20652860;28;20286;-75
2023/10/23 17:04:06;;;;;;;5.97;2.30;;;;;;;;;;20683407;28;20212;-77
2023/10/23 17:14:08;;;;;;;3.67;1.93;;;;;;;;;;20649909;28;20910;-75
2023/10/23 17:24:09;;;;;;;3.33;1.90;;;;;;;;;;20650528;28;20211;-76
2023/10/23 17:34:11;;;;;;;3.60;1.97;;;;;;;;;;20654549;28;20212;-75
2023/10/23 17:44:13;;;;;;;2.60;1.60;;;;;;;;;;20657250;28;20212;-74
2023/10/23 17:54:15;;;;;;;4.97;2.40;;;;;;;;;;20654075;28;20215;-76
2023/10/23 18:04:17;;;;;;;3.67;1.70;;;;;;;;;;20648708;28;20208;-75
2023/10/23 18:14:19;;;;;;;3.07;1.63;;;;;;;;;;20660012;28;20278;-75
2023/10/23 18:24:20;;;;;;;4.13;1.73;;;;;;;;;;20661742;28;20204;-74
2023/10/23 18:34:22;;;;;;;5.77;1.77;;;;;;;;;;20648286;28;20275;-74
2023/10/23 18:44:26;;;;;;;3.97;1.90;;;;;;;;;;20643038;28;20266;-75
2023/10/23 18:54:27;;;;;;;2.37;1.60;;;;;;;;;;20653074;28;20223;-75
2023/10/23 19:04:29;;;;;;;2.00;1.43;;;;;;;;;;20652544;28;20270;-74
2023/10/23 19:14:30;;;;;;;3.70;1.50;;;;;;;;;;20648260;28;20362;-75
2023/10/23 21:20:22;;;;;;;2.37;1.30;;;;;;;;;;20641848;28;20259;-86
2023/10/23 21:30:25;;;;;;;2.83;1.30;;;;;;;;;;20641973;28;20216;-85
2023/10/23 21:40:27;;;;;;;1.87;1.30;;;;;;;;;;20660126;28;20274;-85
2023/10/23 21:50:28;;;;;;;1.97;1.10;;;;;;;;;;20632628;28;20246;-85
2023/10/23 22:00:31;;;;;;;2.27;1.30;;;;;;;;;;20654541;28;20231;-85
2023/10/23 22:10:32;;;;;;;2.57;1.40;;;;;;;;;;20687331;28;20212;-86
2023/10/23 22:20:34;;;;;;;3.73;1.80;;;;;;;;;;20633046;28;20264;-88
2023/10/23 22:30:36;;;;;;;2.23;1.27;;;;;;;;;;20624759;28;20229;-87
2023/10/23 22:40:37;;;;;;;4.63;1.73;;;;;;;;;;20621018;28;20232;-87
2023/10/23 22:50:39;;;;;;;2.50;1.60;;;;;;;;;;20648914;28;20236;-86
2023/10/23 23:00:41;;;;;;;1.80;1.27;;;;;;;;;;20603781;28;20278;-86
2023/10/23 23:10:45;;;;;;;3.10;1.40;;;;;;;;;;20630563;28;20277;-87
2023/10/23 23:20:47;;;;;;;2.00;1.37;;;;;;;;;;20623362;28;20303;-86
2023/10/23 23:30:49;;;;;;;2.13;1.40;;;;;;;;;;20629215;28;20542;-86
2023/10/23 23:40:51;;;;;;;4.43;1.70;;;;;;;;;;20676424;28;20266;-87
2023/10/23 23:50:53;;;;;;;2.97;1.43;;;;;;;;;;20618626;28;20267;-87
